Race Results for
The Folsom Classic Criterium
Folsom, CA
(Event Information)
View By:
Criterium on 05/25/2013

Note: Ranking points are NOT upgrade points. An explanation of ranking points can be found here.


Men - Cat3/4 - Master - 35-99

 Place Points NameCity, StateTime USAC #BibTeam
1150.99 Jake HENSLEY   El Dorado Hills Ca00:00:00.00 295422  617 Folsom Bike/VW/Raley's
2156.05 John ARMER   El Dorado Hills, CA00:00:00.00 93144  602 Team Bicycles Plus/Sierra Neva
3161.11 Chris MORRIS   El Dorado Hills, CA00:00:00.00 316874  656 Folsom Bike/VW/Raley's
4166.17 Eric ZEIGLER   Auburn, CA00:00:00.00 60207  650 Victory Velo Racing
5171.23 Chris KEMP   West Sacramento, CA00:00:00.00 18867  622 Team City Sacramento
6176.29 Aaron SCHMITZ   El Dorado Hills, CA00:00:00.00 383976  635 Kinetic
7181.35 Jon HYATT   Granite Bay, CA00:00:00.00 190437  620 Team Bicycles Plus/Sierra Neva
8186.41 Ronald JOHNSON   Sacramento, CA00:00:00.00 41718  621 Rio Strada
9191.47 Rich HUFFORD (1 - Cat4)   Granite Bay, CA00:00:00.00 365212  619 Victory Velo Racing
10196.53 Lance LOVEDAY   Auburn, CA00:00:00.00 305459  626 Victory Velo Racing
11201.59 Martin SZWARC   Rancho Cordova, CA00:00:00.00 380700  642 Stuzio.com
12206.65 Jerry SNOW (2 - Cat4)   Sacramento, CA00:00:00.00 207749  637 Sacramento Golden Wheelmen
13211.71 Nick ROBERTI   Cameron Park 00:00:00.00 366620  633 Rio Strada Racing
14216.77 John KRETSCHMANN (3 - Cat4)   Folsom, CA00:00:00.00 54278  623 Body Concepts Bicycle Racing T
15221.83 Michael BOEHME   Windsor, CA00:00:00.00 252576  661 Colavita Racing
16226.89 Randy FLOYD (4 - Cat4)   Newcastle, CA00:00:00.00 90079  662 Body Concepts
17231.95 Darron STURGEON   Reno, NV00:00:00.00 286787  639 Hub Coffee Roaster p/b Tahoe C
18237.01 Robert ORCUTT   Scotts Valley, CA00:00:00.00 269340  630 Suffolk-SunPower Racing
19242.07 Brent CHRISTIAN (5 - Cat4)   Cedar Park, TX00:00:00.00 236257  654 Folsom Bike/VW/Raley's
20247.13 Kevin DAVIDSON (6 - Cat4)   Danville, CA00:00:00.00 335464  673 Cushman & Wakefield Racing
21252.19 Michael O'DELL (7 - Cat4)   Folsom, CA00:00:00.00 231563  629 Folsom Bike/VW/Raley's
22257.25 Todd DAMBLY   Folsom, CA00:00:00.00 212968  660 Folsom Bike/VW/Raley's
23262.31 Darren ROJO (8 - Cat4)   Folsom, CA00:00:00.00 366161  634 Team Bicycles Plus/Sierra Neva
24267.37 Bernhard STURM   Davis, CA00:00:00.00 359935  640 Davis Bike Club Race Team
25272.43 Kevin HARRIS (9 - Cat4)   El Dorado Hills, CA00:00:00.00 365218  616 Folsom Bike/VW/Raley's
26277.49 Jeff FARLEY (10 - Cat4)   Rancho Cordova, CA00:00:00.00 339050  612 Folsom Bike/VW/Raley's
27282.55 Paul MITCHELL   Sacramento, CA00:00:00.00 220645  664 
28287.61 Brian ACORD   Sacramento, CA00:00:00.00 334602  672 Folsom Bike/VW/Raley's
29292.67 Peter KROGH (11 - Cat4)   Nevada City, CA00:00:00.00 177339  657 Victory Velo Racing
30297.73 Cory HULA (12 - Cat4)   Sacramento, CA00:00:00.00 334330  674 Team City Sacramento
31302.79 Steve OFFERMAN   Sacramento, CA00:00:00.00 81992  671 Team Bicycles Plus/Sierra Neva
32307.85 Matt CHAPPELL   Truckee, CA00:00:00.00 273103  653 Marc Pro - Strava
33312.91 Alex VELEZ   El Dorado Hills , CA00:00:00.00 63911  646 LeadOut Racing
34317.97 Gregg LEHMAN (13 - Cat4)   Vacaville, CA00:00:00.00 250959  624 Precision Fuji-Oval Racing
35323.03 Atac TULI (14 - Cat4)   Davis, CA00:00:00.00 277938  645 Davis Bike Club Race Team
36328.09 Gordon ONG   Carmichael, CA00:00:00.00 26762  663 Team City Sacramento
37333.15 Paul LUDDEN (15 - Cat4)   Sacramento, CA00:00:00.00 352040  627 NorCal Hub Racing
38338.21 Adam ANDELIN (16 - Cat4)   Elk Grove, CA00:00:00.00 128711  601 Team Bicycles Plus/Sierra Neva
39343.27 Robert GOSS   Folsom, CA00:00:00.00 289041  614 Team Bicycles Plus/Sierra Neva
40348.33 Patrick NORVILLE (17 - Cat4)   Folsom, CA00:00:00.00 392707  665 Team Bicycles Plus/Sierra Neva
41353.39 Omir TORRES (18 - Cat4)   El Dorado Hills, CA00:00:00.00 333158  644 Team Revolutions
42358.45 Amin TAMARIZ (19 - Cat4)   Belmont, CA00:00:00.00 277016  643 Suffolk-SunPower Racing
43363.51 Jeffrey WEAVER   Sacramento, CA00:00:00.00 290926  647 Davis Bike Club Race Team
44368.57 Sean PERKINS (20 - Cat4)   El Dorado Hills, CA00:00:00.00 252869  631 Folsom Bike/VW/Raley's
45373.63 Brian PANTIGA (21 - Cat4)   Folsom, CA00:00:00.00 61633  651 Bicycle Planet
46378.69 Chris DAWSON   Sacramento, CA00:00:00.00 224241  607 Rio Strada Racing
47383.75 Curt MILLS   Gold River, CA00:00:00.00 299412  667 Data Driven Athlete Racing
48388.81 Shayne MARSHALL (22 - Cat4)   Auburn, CA00:00:00.00 392920  628 Folsom Bike
49393.87 Allen BRUMM (23 - Cat4)   Foster City, CA00:00:00.00 195431  669 Suffolk-SunPower Racing
50398.93 Chad RICHARDS (24 - Cat4)   Antelope, CA00:00:00.00 305850  632 Team Bicycles Plus/Sierra Neva
51403.99 Ron STOFAN (25 - Cat4)   Folsom00:00:00.00 368443  638 Team Bicycles Plus/Sierra Neva
52409.05 James DAWSON (26 - Cat4)   Rocklin, CA00:00:00.00 365309  608 NorCal Hub Racing
53414.11 Philip BLAY (27 - Cat4)   Folsom, CA00:00:00.00 274756  604 Folsom Bike/VW/Raley's
54419.17 Greg COOK   El Dorado Hills, CA00:00:00.00 287558  606 Team Bicycles Plus/Sierra Neva
55424.23 Richard SULLIVAN (28 - Cat4)   Rocklin, CA00:00:00.00 387196  666 LeadOut Racing
56429.29 Mark FIORI   Folsom, CA00:00:00.00 112253  613 Folsom Bike/VW/Raley's
57434.35 Ryan HATA   Sacramento, CA00:00:00.00 368  658 
58439.41 Ron FALLON (29 - Cat4)   Folsom, CA00:00:00.00 333716  611 Victory velo racing
59444.47 Edwin GRANDEZ (30 - Cat4)   El Dorado Hills, CA00:00:00.00 394522  615 LeadOut Racing
60449.53 Alvaro MOSQUERA   Sacramento, CA00:00:00.00 236809  668 Team Bicycles Plus/Sierra Neva
61454.59 Gordon OLSON   Reno, NV00:00:00.00 105151  659 Hub Coffee Roasters p/b Tahoe
62459.65 Greg FALES (31 - Cat4)   Orangevale, CA00:00:00.00 275788  610 Team Bicycles Plus/Sierra Neva
63464.71 John LICATESI   Davis, CA00:00:00.00 183265  625 DAVIS BIKE CLUB RACE TEAM
64469.77 Renzo BERNALES (32 - Cat4)   Sacramento, CA00:00:00.00 76203  603 Team City Sacramento
65474.83 Edward OKRAY   Olivehurst, CA00:00:00.00 396520  652 
66 UNKNOWN RIDER   00:00:00.00  ??? -------
67484.95 Kevin WILLITTS   S Lake Tahoe, CA00:00:00.00 192774  649 Team Bicycles Plus/Sierra Neva
68490.01 James BLANKENSHIP   Rescue, CA00:00:00.00 53651  670 Victory Velo Racing
69495.07 Donald EIPPER (33 - Cat4)   El Dorado Hills, CA00:00:00.00 248941  655 Team Revolutions
DNS Matthew ESSELSTROM   Modesto, CA00:00:00.00 277510  609 Topsport
DNS Peter WILLIAMS   Sacramento, CA00:00:00.00 219604  648 Folsom Bike/VW/Raley's
DNP James ALLEN   Danville, CA00:00:00.00 287305  600 Suffolk-SunPower Racing
DNP Tony BOODY (Cat4)   El Dorado Hills, CA00:00:00.00 326730  605 Team Revolutions
DNP Bill HIGGINS (Cat4)   Sacramento, CA00:00:00.00 240634  618 Team City
DNP Mark SNEED (Cat4)   Oakland, CA00:00:00.00 290626  636 Major Motion Cyciing Team
DNP Gerald SYLVESTER   Mountain View, CA00:00:00.00 289113  641 Suffolk-SunPower Racing

Men - Cat2/3

 Place Points NameCity, StateTime USAC #BibTeam
196.50 David GRUNDMAN   Davis, CA00:00:00.00 240540  207 Team Bicycles Plus/Sierra Neva
299.73 Daniel KOSYKH   Davis, CA00:00:00.00 274163  237 Encino Velo Cycling Club
3102.96 Brian ZIMNY   Sacramento, CA00:00:00.00 61117  226 Folsom Bike/VW/Raley's
4106.19 Michael PAINTER   Chico Ca00:00:00.00 289184  214 Chico Corsa Cycling Club
5109.42 Christopher DUDLEY   Reno, NV00:00:00.00 285988  231 TEAM CLIF BAR Cycling
6112.65 Eric BRICKLER (1 - Cat3)   Folsom, CA00:00:00.00 284883  202 Data Driven Athlete Racing
7115.88 Nick SCHAFFNER   Truckee, CA00:00:00.00 187296  219 Marc Pro - Strava
8119.11 Andrew BERG (2 - Cat3)   Sacramento, CA00:00:00.00 351724  229 Sacramento Golden Wheelmen
9122.34 Matt TUFTS   Placerville, CA00:00:00.00 240212  232 Leadoutracing.com (CA)
10125.57 Mark MARQUEZ   Martinez, CA00:00:00.00 288881  211 VuMedi p/b Lombardi Sports
11128.80 Brandon BORTH   Lockeford, CA00:00:00.00 235761  201 Team Bicycles Plus/Sierra Neva
12132.03 Nick MCGOWAN   Rohnert Park, CA00:00:00.00 303653  212 Red Peloton
13135.26 Jason MARTELDYE (3 - Cat3)   Sacramento, CA00:00:00.00 310948  238 Davis Bike Club Race Team
14138.49 Jeff DILLON   Folsom, CA00:00:00.00 9524  241 Leadoutracing.com (CA)
15141.72 Michael CLAUDIO   West Sacramento, CA00:00:00.00 248052  203 Davis Bike Club Race Team
16144.95 Aj SNOVEL   Sacramento, CA00:00:00.00 272559  243 Folsom Bike/VW/Raley's
17148.18 Casey FALLON (4 - Cat3)   Sacramento, CA00:00:00.00 331532  206 Data Driven Athlete
18151.41 Dennis BAKER   Sacramento, CA00:00:00.00 255279  236 Sacramento Golden Wheelmen
19154.64 Michael FERRELL (5 - Cat3)   Provo, UT00:00:00.00 254614  240 Folsom Bike/VW/Raley's
20157.87 Jared KESSLER   Auburn, CA00:00:00.00 277317  244 Folsom Bike/VW/Raley's
21161.10 Kenny STRICKLAND   San Ramon, CA00:00:00.00 270965  221 Metromint Cycling
22164.33 Oliver WEISS (6 - Cat3)   Roseville, CA00:00:00.00 79603  225 Rio Strada Racing
23167.56 Curt MILLS (7 - Cat3)   Gold River, CA00:00:00.00 299412  227 Data Driven Athlete Racing
24170.79 Aaron RINDY   Reno, NV00:00:00.00 303731  217 velo reno
25174.02 Anthony ENG (8 - Cat3)   El Cerrito, CA00:00:00.00 245065  205 Team Oakland Cycling
26177.25 Kalani HINES (9 - Cat3)   Walnut Creek, CA00:00:00.00 219316  235 Metromint Cycling
27180.48 Garrett MARKING (10 - Cat3)   Paradise, CA00:00:00.00 345846  210 Chico Corsa Cycling Club
28183.71 Robby LIEBHERR   Reno, NV00:00:00.00 237449  230 
29186.94 Richard SNODSMITH   San Francisco, CA00:00:00.00 51411  220 CyclesFANATICRacing.com
30190.17 Tyler JANKE (11 - Cat3)   Folsom, CA00:00:00.00 57315  208 Data Driven Athlete Racing
31193.40 Jeffrey GALLAND   Paradise, CA00:00:00.00 127804  239 Team Bicycles Plus/Sierra Neva
32196.63 Fergus TANAKA   San Francisco, CA00:00:00.00 304367  223 Chica Sexy
33199.86 Vitaly GASHPAR (12 - Cat3)   San Francisco, CA00:00:00.00 273905  234 SquadraSF
34203.09 Adam ROSS   Folsom, CA00:00:00.00 167796  218 Fremont Bank Cycling Team
35206.32 Robert LANDER   Sacramento, CA00:00:00.00 356530  233 Team City Sacramento
36209.55 Ryan ALVEY (13 - Cat3)   Sacramento, CA00:00:00.00 274522  200 Davis Bike Club Race Team
37212.78 Thomas THEISEN (14 - Cat3)   Sacramento, CA00:00:00.00 229836  228 Davis Bike Club
38216.01 Jesse REEVES (15 - Cat3)   Reno00:00:00.00 366463  216 
39219.24 Ryan MALM   Sacramento, CA00:00:00.00 296229  209 Davis Bike Club Race Team
40222.47 Alex NEWCOMB (16 - Cat3)   Sacramento, CA00:00:00.00 353226  213 Team City
41225.70 Rich TABUSO (17 - Cat3)   Roseville, CA00:00:00.00 274439  222 Team Bicycles Plus/Sierra Neva
42228.93 Alton DUNNIGAN   Pleasant Hill, CA00:00:00.00 157044  204 VuMedi p/b Lombardi Sports
43232.16 Jeffrey PALILEO (18 - Cat3)   American Canyon, CA00:00:00.00 224717  215 SquadraSF
44235.39 Philip ROBERTS   Oakland, CA00:00:00.00 30110  242 CyclesFANATICRacing.com
45238.62 Paul TAYLOR (19 - Cat3)   Brentwood, CA00:00:00.00 207281  224 Metromint Cycling
46241.85 Kimberly FONG   Berkeley, CA00:00:00.00 238713  245 CyclesFANATICRacing.com

Men - Cat1/2/3 - Master - 35-99

 Place Points NameCity, StateTime USAC #BibTeam
1103.17 Michael O'ROURKE (1 - Cat2)   Auburn, CA00:00:00.00 204496  828 SAFEWAY/PureRED/Bicycles Plus
2105.96 Gregg BETONTE (2 - Cat2)   Truckee, CA00:00:00.00 255414  803 ZIPZ CYCLING TEAM
3108.75 Jeffrey GALLAND (3 - Cat2)   Paradise, CA00:00:00.00 127804  808 ZIPZ CYCLING TEAM
4111.54 Phil ROBERTS (4 - Cat2)   Oakland, CA00:00:00.00 30110  813 Cycles FANATIC USA
5114.33 Richard STEELE (5 - Cat2)   El Dorado Hills, CA00:00:00.00 58347  815 Lange Twins Winery Racing Team
6117.12 Scott FONSECA (6 - Cat2)   Fair Oaks, CA00:00:00.00 204715  832 PrimeTime Cycling Team
7119.91 Lee SHUEMAKE (7 - Cat2)   Sonora, CA00:00:00.00 197770  838 Topsport
8122.70 Jude MAYNE (1 - Cat3)   Reno, NV00:00:00.00 261818  834 Hub Coffee Roasters p/b Tahoe
9125.49 Richard SNODSMITH (8 - Cat2)   San Francisco, CA00:00:00.00 51411  814 CyclesFANATICRacing.com
10128.28 Jonathan LEE   Santa Rosa, CA00:00:00.00 217858  840 Red Peloton
11131.07 John FAIRBANKS (9 - Cat2)   Sacramento, CA00:00:00.00 83306  839 Folsom Bike/VW/Raley's
12133.86 Andre TENTHOREY (10 - Cat2)   Granite Bay, CA00:00:00.00 76561  842 LangeTwins Winery Racing Team
13136.65 Steve THOMSEN (11 - Cat2)   Reno, NV00:00:00.00 245436  833 Hub Coffee Roasters p/b Tahoe
14139.44 Mitch BOEHS (2 - Cat3)   Livingston, CA00:00:00.00 237309  804 Topsport
15142.23 Gordon OLSON (3 - Cat3)   Reno, NV00:00:00.00 105151  830 Hub Coffee Roasters p/b Tahoe
16145.02 Jeff WATSON (12 - Cat2)   Elk Grove, CA00:00:00.00 293136  824 Team Bicycles Plus/Sierra Neva
17147.81 Michael BOEHME (4 - Cat3)   Windsor, CA00:00:00.00 252576  843 Colavita Racing
18150.60 John FRITZ (13 - Cat2)   Stockton, CA00:00:00.00 76287  807 Michael David Winery Cycling T
19153.39 David ALBRECHT   Chico, CA00:00:00.00 47091  800 ZIPZ CYCLING TEAM
20156.18 Dave KAUSE (14 - Cat2)   Sacramento, CA00:00:00.00 175157  831 
21158.97 Michael EGAN (15 - Cat2)   West Sacrametno, CA00:00:00.00 124893  805 Sacramento Golden Wheelmen
22161.76 Douglas GONDA (5 - Cat3)   Truckee, CA00:00:00.00 13594  837 Team Bicycles Plus/Sierra Neva
23164.55 Paul TAYLOR (6 - Cat3)   Brentwood, CA00:00:00.00 207281  817 Metromint Cycling
24167.34 Rod FERNANDEZ (7 - Cat3)   Dixon, CA00:00:00.00 265576  820 Davis Bike Club Race Team
25170.13 Joseph OLIVERI (16 - Cat2)   Grass Valley, CA00:00:00.00 26674  826 Team Bicycles Plus/Sierra Neva
26172.92 Joseph STARON (17 - Cat2)   Sacramento, CA00:00:00.00 132859  844 LangeTwins Winery Racing Team
27175.71 Chris DAWSON (8 - Cat3)   Sacramento, CA00:00:00.00 224241  835 Rio Strada Racing
28178.50 John ARMER (9 - Cat3)   El Dorado Hills, CA00:00:00.00 93144  801 Team Bicycles Plus/Sierra Neva
29181.29 Henry RABAS (10 - Cat3)   West Sacramento, CA00:00:00.00 28975  841 Team Bicycles Plus/Sierra Neva
30184.08 Daniel BRYANT   Carmichael, CA00:00:00.00 195929  836 Folsom Bike/VW/Raley's
31186.87 Peter NICHOLSON (18 - Cat2)   Mill Valley00:00:00.00 219558  812 TRUE Communications
32189.66 Jack ARNEY (11 - Cat3)   Lincoln, CA00:00:00.00 301427  802 Folsom Bike/VW/Raley's
33192.45 Kerry STOCKWELL   Folsom, CA00:00:00.00 34228  821 Team Bicycles Plus/Sierra Neva
34195.24 Jens HILLEN (19 - Cat2)   Orinda, CA00:00:00.00 226525  810 ZIPZ CYCLING TEAM
35198.03 Nabil SAMAAN (20 - Cat2)   Fair Oaks, CA00:00:00.00 177518  823 Sustainable Cycling
DNS Matthew ESSELSTROM (Cat3)   Modesto, CA00:00:00.00 277510  806 Topsport
DNS Daryl HEMENWAY (Cat2)   San Jose00:00:00.00 133838  809 Fred Meyer
DNS Rodney SPRADLIN (Cat2)   El Dorado Hills, CA00:00:00.00 122266  827 Team Bicycles Plus/Sierra Neva
DNP Lance NEWEY (Cat3)   Fair Oaks, CA00:00:00.00 202161  811 Team Bicycles Plus/Sierra Neva
DNP Darron STURGEON (Cat3)   Reno, NV00:00:00.00 286787  816 Hub Coffee Roaster p/b Tahoe C
DNP Judd VAN SICKLE   Sacramento, CA00:00:00.00 127052  818 Folsom Bike/VW/Raley's
DNP Curt MILLS (Cat3)   Gold River, CA00:00:00.00 299412  819 Data Driven Athlete Racing
DNP Alvaro MOSQUERA (Cat3)   Sacramento, CA00:00:00.00 236809  822 Team Bicycles Plus/Sierra Neva
DNP David DEL ROSSO (Cat2)   Dublin, CA00:00:00.00 187432  825 PrimeTime Cycling Team
DNP Rich TABUSO (Cat3)   Roseville, CA00:00:00.00 274439  829 Team Bicycles Plus

Men - Cat1/2/3 - Master - 45-99

 Place Points NameCity, StateTime USAC #BibTeam
193.82 Gregg BETONTE (1 - Cat2)   Truckee, CA00:00:00.00 255414  705 ZIPZ CYCLING TEAM
2101.01 David ALBRECHT   Chico, CA00:00:00.00 47091  701 ZIPZ CYCLING TEAM
3108.20 Michael O'ROURKE (2 - Cat2)   Auburn, CA00:00:00.00 204496  735 SAFEWAY/PureRED/Bicycles Plus
4115.39 John FAIRBANKS (3 - Cat2)   Sacramento, CA00:00:00.00 83306  732 Folsom Bike/VW/Raley's
5122.58 Kerry STOCKWELL   Folsom, CA00:00:00.00 34228  718 Team Bicycles Plus/Sierra Neve
6129.77 Max MACK (4 - Cat2)   Sacramento, CA00:00:00.00 45629  715 Health is Wealth road cycling
7136.96 Nabil SAMAAN (5 - Cat2)   Fair Oaks, CA00:00:00.00 177518  724 Sustainable Cycling
8144.15 Marty CUNNINGHAM (6 - Cat2)   Sacrament Ca00:00:00.00 8359  707 Sustainable Cycling
9151.34 Todd DAMBLY (1 - Cat3)   Folsom, CA00:00:00.00 212968  723 Folsom Bike/VW/Raley's
10158.53 Chris KEMP (2 - Cat3)   West Sacramento, CA00:00:00.00 18867  713 Team City Sacramento
11165.72 Chris MORRIS (3 - Cat3)   El Dorado Hills, CA00:00:00.00 316874  722 Folsom Bike/VW/Raley's
12172.91 Tom FAHEY (7 - Cat2)   Lodi, CA00:00:00.00 54092  708 Bell Lap
13180.10 Morgan MAHANKE (4 - Cat3)   El Dorado Hills, CA00:00:00.00 226577  716 Team Bicycles Plus / Sierra Ne
14187.29 Steven GRIFFITHS (5 - Cat3)   Granite Bay, CA00:00:00.00 14196  730 Team Bicycles Plus/Sierra Neva
15194.48 Joseph OLIVERI (8 - Cat2)   Grass Valley, CA00:00:00.00 26674  731 Team Bicycles Plus/Sierra Neva
16201.67 Kevin WILLITTS (6 - Cat3)   S Lake Tahoe, CA00:00:00.00 192774  721 Team Bicycles Plus/Sierra Neva
17208.86 Eric ZEIGLER (7 - Cat3)   Auburn, CA00:00:00.00 60207  720 Victory Velo Racing
18216.05 Steve OFFERMAN (8 - Cat3)   Sacramento, CA00:00:00.00 81992  725 Team Bicycles Plus/Sierra Neva
19223.24 Jc CLIFFORD (9 - Cat3)   Roseville, CA00:00:00.00 232661  706 Team Bicycles Plus/Sierra Neva
20230.43 Rod FERNANDEZ (10 - Cat3)   Dixon, CA00:00:00.00 265576  709 Davis Bike Club Race Team
21237.62 Jeff MITCHELL (11 - Cat3)   Folsom, CA00:00:00.00 101551  729 Team Bicycles Plus/Sierra Neva
22244.81 Ken TODD (12 - Cat3)   Folsom, CA00:00:00.00 174881  719 Team Bicycles Plus/Sierra Neva
23252.00 Brian HITCHMAN (9 - Cat2)   Folsom, CA00:00:00.00 48419  712 Team Bicycles Plus/Sierra Neva
24259.19 Ken HILL (10 - Cat2)   Woodland, CA00:00:00.00 274292  733 Davis Bike Club Race Team
25266.38 John LANE (11 - Cat2)   Carmichael, CA00:00:00.00 365427  736 Rio Strada Racing
26273.57 John LICATESI (13 - Cat3)   Davis, CA00:00:00.00 183265  714 DAVIS BIKE CLUB RACE TEAM
27280.76 Steve WARD (14 - Cat3)   Folsom, CA00:00:00.00 286653  726 Team Bicycles Plus/Sierra Neva
28287.95 Mark FIORI (15 - Cat3)   Folsom, CA00:00:00.00 112253  710 Folsom Bike/VW/Raley's
29295.14 Jack ARNEY (16 - Cat3)   Lincoln, CA00:00:00.00 301427  702 Folsom Bike/VW/Raley's
30302.33 David DEL ROSSO (12 - Cat2)   Dublin, CA00:00:00.00 187432  728 PrimeTime Cycling Team
31309.52 Lance NEWEY (17 - Cat3)   Fair Oaks, CA00:00:00.00 202161  717 Team Bicycles Plus/Sierra Neva
32316.71 Jens HILLEN (13 - Cat2)   Orinda, CA00:00:00.00 226525  711 ZIPZ CYCLING TEAM
DNS Jeff ALBERT (Cat3)   Reno, NV00:00:00.00 235063  700 WAA/TexMarketUSA.com
DNS Dennis BAKER (Cat2)   Sacramento, CA00:00:00.00 255279  703 Sacramento Golden Wheelmen
DNS James WACHTER (Cat3)   Knoxville, TN00:00:00.00 209180  727 Harper Auto
DNS Rodney SPRADLIN (Cat2)   El Dorado Hills, CA00:00:00.00 122266  734 Team Bicycles Plus/Sierra Neva
DNF Lance BARTCZAK (Cat3)   Cool, CA00:00:00.00 353518  704 BAHATI RACING

Men - Pro/Cat 1/2

 Place Points NameCity, StateTime USAC #BibTeam
176.93 Willie MYERS (1 - Cat1)   Carmichael, CA00:00:00.00 306325  15 Marc Pro - Strava
279.12 Matt CHATLAONG (2 - Cat1)   Roseville, CA00:00:00.00 304797  39 Folsom Bike/VW/Raley's
381.31 Jared KESSLER (3 - Cat1)   Auburn, CA00:00:00.00 277317  43 Folsom Bike/VW/Raley's
483.50 Charles HUTCHESON (4 - Cat1)   Petaluma, CA00:00:00.00 54686  11 Marc Pro - Strava
585.69 Martin ACOSTA (5 - Cat1)   East Palo Alto, CA00:00:00.00 291277  46 Leopard-Sapporo Team
687.88 Joshua CARLING (6 - Cat1)   Rancho Cordova, CA00:00:00.00 234584  33 Team Bicycles Plus/Sierra Neva
790.07 David GRUNDMAN (7 - Cat1)   Davis, CA00:00:00.00 240540  Team Bicycles Plus/Sierra Neva
892.26 Nick SCHAFFNER (1 - Cat2)   Truckee, CA00:00:00.00 187296  22 Marc Pro - Strava
994.45 Christopher DUDLEY (8 - Cat1)   Reno, NV00:00:00.00 285988  36 TEAM CLIF BAR Cycling
1096.64 Cody KAISER (9 - Cat1)   El Dorado Hills, CA00:00:00.00 202564  12 California Giant/Specialized
1198.83 Mark MARQUEZ (2 - Cat2)   Martinez, CA00:00:00.00 288881  13 VuMedi p/b Lombardi Sports
12101.02 Chris STASTNY (10 - Cat1)   Vacaville, CA00:00:00.00 249743  25 Hagens Berman Cycling
13103.21 Nathanael CHRISTENSEN (11 - Cat1)   Clements, CA00:00:00.00 239919  32 Team Bicycles Plus/Sierra Neva
14105.40 Brian ZIMNY (3 - Cat2)   Sacramento, CA00:00:00.00 61117  28 Folsom Bike/VW/Raley's
15107.59 Nick MCGOWAN (4 - Cat2)   Rohnert Park, CA00:00:00.00 303653  14 Red Peloton
16109.78 Phil ROBERTS (5 - Cat2)   Oakland, CA00:00:00.00 30110  20 Cycles FANATIC USA
17111.97 Andre TENTHOREY (6 - Cat2)   Granite Bay, CA00:00:00.00 76561  45 LangeTwins Winery Racing Team
18114.16 Trevor GOMES (7 - Cat2)   Lodi, CA00:00:00.00 321964  30 Team Bicycles Plus/Sierra Neva
19116.35 Brandon BORTH (12 - Cat1)   Lockeford, CA00:00:00.00 235761  Team Bicycles Plus/Sierra Neva
20118.54 John FRITZ (8 - Cat2)   Stockton, CA00:00:00.00 76287  Michael David Winery Cycling T
21120.73 Peter NICHOLSON (9 - Cat2)   Mill Valley00:00:00.00 219558  16 TRUE Communications
22122.92 Matt TUFTS (10 - Cat2)   Placerville, CA00:00:00.00 240212  37 Leadoutracing.com (CA)
23125.11 Nate FREED (13 - Cat1)   Tahoe City, CA00:00:00.00 86484  Marc Pro - Strava
24 UNKNOWN RIDER   00:00:00.00  ??? -------
25129.49 Kenny STRICKLAND (11 - Cat2)   San Ramon, CA00:00:00.00 270965  26 Metromint Cycling
26131.68 Nick BAIRD (12 - Cat2)   Sanger, CA00:00:00.00 309596  42 INTEGRITY RACING p/b Integrity
27133.87 Aaron SNOVEL (13 - Cat2)   Sacramento, CA00:00:00.00 272559  24 Vw /Raley's /Folsom Bike
28136.06 Richard STEELE (14 - Cat2)   El Dorado Hills, CA00:00:00.00 58347  41 LangeTwins Winery Racing Team
29138.25 Adam ROSS (15 - Cat2)   Folsom, CA00:00:00.00 167796  21 Fremont Bank Cycling Team
30140.44 Steve THOMSEN (16 - Cat2)   Reno, NV00:00:00.00 245436  38 Hub Coffee Roasters p/b Tahoe
31142.63 Aaron RINDY (17 - Cat2)   Reno, NV00:00:00.00 303731  19 velo reno
32144.82 Richard SNODSMITH (18 - Cat2)   San Francisco, CA00:00:00.00 51411  23 CyclesFANATICRacing.com
33147.01 Fergus TANAKA (19 - Cat2)   San Francisco, CA00:00:00.00 304367  27 Chica Sexy
34149.20 Dean PETERS (14 - Cat1)   Burlingame, CA00:00:00.00 231367  18 Leopard Sapporo
35151.39 Robby LIEBHERR (20 - Cat2)   Reno, NV00:00:00.00 237449  34 
36153.58 Alton DUNNIGAN (21 - Cat2)   Pleasant Hill, CA00:00:00.00 157044  VuMedi p/b Lombardi Sports
37155.77 Nabil SAMAAN (22 - Cat2)   Fair Oaks, CA00:00:00.00 177518  44 Sustainable Cycling
38157.96 Johnathon LEE (15 - Cat1)   Santa Rosa, CA 217858  29 Red Peloton
DNS Randy BRAMBLETT (Cat1)   San Francisco, CA00:00:00.00 187194  Leopard Sapporo Team
DNS Michael CLAUDIO (Cat2)   West Sacramento, CA00:00:00.00 248052  Davis Bike Club Race Team
DNS Daryl HEMENWAY (Cat2)   San Jose00:00:00.00 133838  10 Fred Meyer
DNP Michael EGAN (Cat2)   West Sacrametno, CA00:00:00.00 124893  Sacramento Golden Wheelmen
DNP Daniel FARINHA (Cat1)   San Jose, CA00:00:00.00 240558  VuMedi p/b Lombardi Sports
DNP Michael PAINTER (Cat2)   Chico Ca00:00:00.00 289184  17 Chico Corsa Cycling Club
DNP Jonathan LEE (Cat1)   Santa Rosa, CA00:00:00.00 217858  31 Red Peloton
DNP Trevor WHITE (Cat2)   Oakland, CA00:00:00.00 503  35 SquadraSF
DNP Jeff WATSON (Cat2)   Elk Grove, CA00:00:00.00 293136  40 Team Bicycles Plus/Sierra Neva

Men - Cat 3

 Place Points NameCity, StateTime USAC #BibTeam
1136.93 Samuel BOLSTER   Camino, CA00:00:00.00 258704  332 Velo Reno P/B Tamarack Junctio
2140.63 Daniel KOSYKH   Davis, CA00:00:00.00 274163  335 Encino Velo Cycling Club
3144.33 Gabe MULTER   Santa Cruz, CA00:00:00.00 331142  341 Bear Development Team
4148.03 Tyler JANKE   Folsom, CA00:00:00.00 57315  310 Data Driven Athlete Racing
5151.73 Matthew FANFELLE   Sacramento, CA00:00:00.00 370596  337 
6155.43 Casey FALLON   Sacramento, CA00:00:00.00 331532  308 Data Driven Athlete
7159.13 Dennis BAKER   Sacramento, CA00:00:00.00 255279  338 Sacramento Golden Wheelmen
8162.83 Jeffrey BUSCHECK   Pleasanton, CA00:00:00.00 283386  334 Fremont Bank Cycling Team
9166.53 Jude MAYNE   Reno, NV00:00:00.00 261818  330 Hub Coffee Roasters p/b Tahoe
10170.23 Alex NEWCOMB   Sacramento, CA00:00:00.00 353226  315 Team City
11173.93 Andrew BERG   Sacramento, CA00:00:00.00 351724  304 Sacramento Golden Wheelmen
12177.63 Gordon OLSON   Reno, NV00:00:00.00 105151  328 Hub Coffee Roasters p/b Tahoe
13181.33 Robert LANDER   Sacramento, CA00:00:00.00 356530  312 Team City Sacramento
14185.03 Jonathan CHRISTENSEN   Clements, CA00:00:00.00 250315  329 Team Bicycles Plus/Sierra Neva
15188.73 Jesse REEVES   Reno00:00:00.00 366463  318 
16192.43 Tom THEISEN   Sacramento, CA00:00:00.00 229836  322 Davis Bike Club
17196.13 Oliver WEISS   Roseville, CA00:00:00.00 79603  325 Rio Strada Racing
18199.83 Michael FERRELL   Provo, UT00:00:00.00 254614  333 Folsom Bike/VW/Raley's
19203.53 Anthony ENG   El Cerrito, CA00:00:00.00 245065  307 Team Oakland Cycling
20207.23 Bryan RICHARDSON   Manteca, CA00:00:00.00 396955  336 
21210.93 Jason MARTELDYE   Sacramento, CA00:00:00.00 310948  339 Davis Bike Club Race Team
22214.63 Justin TRAUD   Gold River, CA00:00:00.00 368059  323 Rio Strada
23218.33 Mitch BOEHS   Livingston, CA00:00:00.00 237309  305 Topsport
24222.03 Paul TAYLOR   Brentwood, CA00:00:00.00 207281  321 Metromint Cycling
25225.73 Vitaly GASHPAR   San Francisco, CA00:00:00.00 273905  309 SquadraSF
26229.43 Garrett MARKING   Paradise, CA00:00:00.00 345846  314 Chico Corsa Cycling Club
27233.13 Robert ORCUTT   Scotts Valley, CA00:00:00.00 269340  316 Suffolk-SunPower Racing
28236.83 Douglas GONDA   Truckee, CA00:00:00.00 13594  331 Team Bicycles Plus/Sierra Neva
29240.53 James ALLEN   Danville, CA00:00:00.00 287305  301 Suffolk-SunPower Racing
30244.23 Ryan ALVEY   Sacramento, CA00:00:00.00 274522  302 Davis Bike Club Race Team
31247.93 Curt MILLS   Gold River, CA00:00:00.00 299412  327 Data Driven Athlete Racing
32251.63 Kalani HINES   Walnut Creek, CA00:00:00.00 219316  340 Metromint Cycling
33255.33 Dean ALLEGER   Sacramento, CA00:00:00.00 196784  300 Team Bicycles Plus/Sierra Neva
34259.03 Timothy ZSOKA   Folsom, CA00:00:00.00 239889  326 Team Bicycles Plus/Sierra Neva
35262.73 Ryan MALM   Sacramento, CA00:00:00.00 296229  313 Davis Bike Club Race Team
36266.43 Jeffrey PALILEO   American Canyon, CA00:00:00.00 224717  317 SquadraSF
DNS Rich TABUSO   Roseville, CA00:00:00.00 274439  320 Team Bicycles Plus/Sierra Neva
DNS Troy UNDERWOOD   Rancho Cordova, CA00:00:00.00 238691  324 Sacramento Golden Wheelmen
DNP Percy BAUTISTA   Pacifica, CA00:00:00.00 303915  303 Suffolk-SunPower Racing
DNP Eric BRICKLER   Folsom, CA00:00:00.00 284883  306 Data Driven Athlete Racing
DNP Ronald JOHNSON   Sacramento, CA00:00:00.00 41718  311 Rio Strada
DNP Andrew SHIMIZU   El Dorado Hills, CA00:00:00.00 366663  319 Data Driven Athlete Racing

Men - Cat 4

 Place Points NameCity, StateTime USAC #BibTeam
1212.32 Martin SZWARC   Rancho Cordova, CA00:00:00.00 380700  445 Stuzio.com
2217.80 Matthew AMICUCCI   Sacramento Ca00:00:00.00 366695  400 UC Davis
3223.28 Gerald SYLVESTER   Mountain View, CA00:00:00.00 289113  444 Suffolk-SunPower Racing
4228.76 Nicholas CASTER   Roseville, CA00:00:00.00 394639  408 Rio Strada Racing
5234.24 Gabriel GANDARA   Sacramento, CA00:00:00.00 339042  416 Team City Sacramento
6239.72 Wyatt MORIN   Roseville, CA00:00:00.00 266930  431 Victory Velo/Grammo
7245.20 Robert TERRA   Lodi, CA00:00:00.00 269793  447 Team Bicycles Plus/Sierra Neva
8250.68 James WHITNEY   Lincoln, CA00:00:00.00 51073  450 
9256.16 Aaron SCHMITZ   El Dorado Hills, CA00:00:00.00 383976  440 Kinetic
10261.64 Zachary ISAACS   Oakland, CA00:00:00.00 310212  427 Middlebury College Cycling Tea
11267.12 Brian PANTIGA   Folsom, CA00:00:00.00 61633  457 Bicycle Planet
12272.60 Matthew AXFORD   Carmichael, CA00:00:00.00 247223  402 Rio Strada Racing
13278.08 Cory HULA   Sacramento, CA00:00:00.00 334330  426 Team City Sacramento
14283.56 Kevin DAVIDSON   Danville, CA00:00:00.00 335464  412 Cushman & Wakefield Racing
15 UNKNOWN RIDER   00:00:00.00  ??? -------
16294.52 Matt CHAPPELL   Truckee, CA00:00:00.00 273103  461 Marc Pro - Strava
17300.00 Kyle YUGAWA   San Francisco, CA00:00:00.00 367423  453 SquadraSF
18305.48 Brent CHRISTIAN   Cedar Park, TX00:00:00.00 236257  463 Folsom Bike/VW/Raley's
19310.96 Joseph HOLT   Chico, CA00:00:00.00 389741  424 Chico Corsa Cycling Club
20316.44 Jasper HODGSON   Folsom, CA00:00:00.00 337878  423 Team Bicycles Plus/Sierra Neva
21321.92 Nick SHOCKEY   Woodland, CA00:00:00.00 319784  441 Data Driven Athlete Racing
22327.40 Derek NOVAES   West Sacramento, CA00:00:00.00 274484  433 Rio Strada Racing
23332.88 Brian RENYER   Rocklin, CA00:00:00.00 401353  437 The Hub Racing
24338.36 Tim BAIR   Roseville, CA00:00:00.00 257805  459 
25343.84 Scott KINGSTON   Sacramento, CA00:00:00.00 364783  428 Rio Strada Racing
26349.32 Scott FASER   Roseville, CA00:00:00.00 334198  458 NorCal Hub Cycling Club LLC
27354.80 Joshua TIPTON   Sacramento00:00:00.00 374810  448 Team city Sacramento
28360.28 Michael HAHN   Folsom, CA00:00:00.00 338214  421 Team Bicycles Plus/Sierra Neva
29365.76 Rich HUFFORD   Granite Bay, CA00:00:00.00 365212  425 Victory Velo Racing
30371.24 Igor DEMENTIEV   Sacramento00:00:00.00 365501  414 Sacramento Golden Wheelmen (SG
31376.72 James DAWSON   Rocklin, CA00:00:00.00 365309  413 NorCal Hub Racing
32382.20 Tyler PLACE   El Dorado Hills, CA00:00:00.00 365099  454 
33 UNKNOWN RIDER   00:00:00.00  464 -------
34393.16 Kevin HARRIS   El Dorado Hills, CA00:00:00.00 365218  422 Folsom Bike/VW/Raley's
35398.64 Brandon GATAN   Suisun City, CA00:00:00.00 393248  417 Form671
36404.12 Gary BIEHL   Sacramento, CA00:00:00.00 86778  403 
37409.60 Adam STANSBURY   Folsom, CA00:00:00.00 347404  442 Folsom Bike/VW/Raley's
38415.08 Darin MORGAN   Sacramento00:00:00.00 394404  430 pedalhard
39420.56 Kenneth CURTIS   Sparks, NV00:00:00.00 302356  410 Reno Cycling Team
40426.04 Mike GIUDICELLI   Auburn, CA00:00:00.00 330124  419 NorCal Hub Racing
41431.52 Glenn WALLIN   Sparks, NV00:00:00.00 316262  449 Reno cycling team p/b Natures
42437.00 Troy STRICKLAND   San Ramon00:00:00.00 279824  443 Tieni Duro Junior Cycling
43442.48 Manny CANSON   Sparks, NV00:00:00.00 334646  407 Reno Cycling Team p/b Nature's
44 UNKNOWN RIDER   00:00:00.00  ??? -------
45453.44 Connor ELLISON   Folsom, CA00:00:00.00 329264  415 Team Bicycles Plus/Sierra Neva
46458.92 Travis TANASSE   Folsom, CA00:00:00.00 378079  446 Folsom Bike/VW/Raley's
47464.40 Philip BLAY   Folsom, CA00:00:00.00 274756  404 Folsom Bike/VW/Raley's
48469.88 Ian NACCARATO   Reno00:00:00.00 385556  432 Reno Cycling Team pb/ Nature's
49475.36 Scott GELBKE   West Sacramento, CA00:00:00.00 359225  418 Rio Strada Racing
50480.84 Donald EIPPER   El Dorado Hills, CA00:00:00.00 248941  462 Team Revolutions
51486.32 Christopher POPOVICH   Elk Grove, CA00:00:00.00 381343  435 Rio Strada Racing
52491.80 Allen BRUMM   Foster City, CA00:00:00.00 195431  455 Suffolk-SunPower Racing
53497.28 Nicholas LOUIS   Auburn, CA00:00:00.00 315558  429 Chico Corsa Cycling Club
54502.76 Bernard ORENCIA   Pittsburg, CA00:00:00.00 366781  434 Red Kite Racing
55508.24 Ben CONNOLLY   Citrus Heights, CA00:00:00.00 392598  409 Sacramento Team City
56513.72 Greg PRICE   West Sacramento, CA00:00:00.00 364779  436 Rio Strada Racing
57519.20 Schuyler WILCOX   Sacramento, CA00:00:00.00 335466  452 Rio Strada Racing
58524.68 Adam ANDELIN   Elk Grove, CA00:00:00.00 128711  401 Team Bicycles Plus/Sierra Neva
59530.16 Darren ROJO   Folsom, CA00:00:00.00 366161  439 Team Bicycles Plus/Sierra Neva
60535.64 Matthew DAILEY   Davis, CA00:00:00.00 330968  411 Davis Bike Club Race Team
61541.12 Chris BOSCO   Reno, NV00:00:00.00 379492  406 Reno Cycling Team presented by
62546.60 David WIELAND   Roseville00:00:00.00 397062  451 Rio Strada Racing
63552.08 Nick ROBERTI   Cameron Park 00:00:00.00 366620  438 Rio Strada Racing
DNS Christopher GROVE   Sacramento, CA00:00:00.00 332750  420 Body Concepts
DNP Tony BOODY   El Dorado Hills, CA00:00:00.00 326730  405 Team Revolutions
DNP Trevor JOHNSTON   Citrusheights, CA00:00:00.00 317078  456 Rio Strada Racing
DNP Marcus BELTRAMO   San Francisco, CA00:00:00.00 380345  460 

Men - Cat 5

 Place Points NameCity, StateTime USAC #BibTeam
1419.05 Jason SMITH   Sacramento, CA00:00:00.00 401440  518 Rio Strada Racing
2425.16 Samuel GUZMAN   Sacramento, CA00:00:00.00 367810  506 Victory Velo Racing
3 Sebastian PETORLIN   00:00:00.00  527 
4437.38 Gavin MURRAY   Sebastopol, CA00:00:00.00 403731  513 
5443.49 John SIMKO   El Dorado Hills, CA00:00:00.00 393071  529 Folsom Bike/VW/Raley's
6449.60 Greg AMPEY   Elk Grove, CA00:00:00.00 399829  500 Team City Sacramento
7455.71 John MCCOMB   Reno, NV00:00:00.00 391979  512 Reno Cycling Team p/b natures
8461.82 John SCOTT   Folsom, CA00:00:00.00 393871  517 Bicycle Planet
9467.93 Daniel BROWN   Granite Bay00:00:00.00 128466  503 
10474.04 Troy SOARES   Auburn, CA00:00:00.00 129658  519 Victory Velo
11480.15 Jose DELTORO   Cressey, CA00:00:00.00 391984  526 Topsport
12486.26 Colby STOTT   Reno, NV00:00:00.00 392737  522 Reno Cycling Team p.b. Nature'
13492.37 David VINCENT   Reno, NV00:00:00.00 391971  525 Reno Cycling Team pb: Nature's
14 Matthew KEATING   00:00:00.00  510 
15504.59 Matthew KESSELRING   El Dorado Hills, CA00:00:00.00 393903  511 Cycling development
16510.70 Kevin UNDERCOFFER   Antelope, CA00:00:00.00 396920  524 Norcal HUB
17516.81 Jake JACOT   Lancaster, CA00:00:00.00 166558  509 
18522.92 Jonathan SPIVACK   Reno, NV00:00:00.00 391996  521 Reno Cycling Team p.b. Nature'
19529.03 Erik CHO   San Francisco00:00:00.00 331900  504 Synchro Nutritionals
20535.14 Shane ROGERS   Folsom, CA00:00:00.00 286872  515 Team Revolutions
21541.25 Jason Roth   El Dorado Hills, CA00:00:00.00 420101  516 Team Revolutions
22547.36 Jeff HAMILTON   Truckee, CA00:00:00.00 365643  507 Truckee Bicycle Team
23553.47 Damian SOUTHERLAND   Rancho Cordova, CA00:00:00.00 384578  520 
24559.58 Derrick PIERCE   Roseville00:00:00.00 401700  514 Leadout Racing
25565.69 Ryan BEATY   Incline Village, NV00:00:00.00 381211  501 
26571.80 Sean AGUILAR   Shingle Springs, CA00:00:00.00 393627  528 Folsom Bike/VW/Raley's
27577.91 Christopher Flower   Folsom Ca00:00:00.00 406652  505 
28584.02 Richard BRONG   Reno, NV00:00:00.00 391970  502 Reno Cycling Team p/b Nature's
29590.13 Matthew HARGROVE   West Sacramento, CA00:00:00.00 371468  508 Davis Bike Club Race Team
DNS Richard SULLIVAN   Rocklin, CA00:00:00.00 387196  523 LeadOut Racing

Women - Cat3/4

 Place Points NameCity, StateTime USAC #BibTeam
1174.03 Jennifer KRUGER   Rohnert Park, CA00:00:00.00 339128  156 Red Peloton
2190.17 Shannon MITCHELL   Santa Rosa, CA00:00:00.00 307520  160 Red Peloton
3206.31 Sabrina DAVID   Boulder, CO00:00:00.00 291263  150 Metromint Cycling
4222.45 Heidi LITTENBERG   Reno, NV00:00:00.00 286191  157 Rio Strada Racing
5238.59 Katie STONEBRAKER   Sacramento, CA00:00:00.00 226927  163 Rio Strada Racing
6254.73 Gale DE ROSA   Gold River, CA00:00:00.00 332412  151 Metromint Cycling
7270.87 Aliya TRAFICANTE   Chico, CA00:00:00.00 310825  164 Chico Corsa Cycling Club
8287.01 Nicole SLATON   Davis, CA00:00:00.00 287914  162 Metromint Cycling
9303.15 Karen HUTCHINS   Folsom, CA00:00:00.00 308852  155 Red Peloton
10 UNKNOWN RIDER   00:00:00.00  ??? -------
11335.43 Fiona WINDER (1 - Cat4)   Lafayette, CA00:00:00.00 308071  165 VuMedi p/b Lombardi Sports
12351.57 Jeanette HAGGAS   San Francisco00:00:00.00 393251  153 Leopard-Sapporo Team
13367.71 Kristin WOLFE (2 - Cat4)   Sanjose, CA00:00:00.00 289378  170 SJBC
14383.85 Stephanie BUCKNER   West Sacramento, CA00:00:00.00 337666  166 Rio Strada Racing
15399.99 Emily SETZER   Sacramento, CA00:00:00.00 368470  169 
16416.13 Joanne LIU (3 - Cat4)   Granite Bay00:00:00.00 393189  158 Leopard-Sapporo
17432.27 Stephanie MAYBERG (4 - Cat4)   Sacramento, CA00:00:00.00 403037  159 Rio Strada Racing
18448.41 Amanda MATTIOLI (5 - Cat4)   Reno, NV00:00:00.00 376317  168 Reno Cycling Team p/b Nature's
19464.55 Lucie OREN (6 - Cat4)   Reno, NV00:00:00.00 391955  161 Reno Cycling Team p/b Nature's
DNF Heather DUFFY (Cat4)   Sacramento, CA00:00:00.00 393169  152 Delta Velo
DNF Sara HEUSTON (Cat4)   Carmichael, CA00:00:00.00 391988  154 Rio Strada Racing
DNF Lisa TATE (Cat4)   Reno00:00:00.00 392733  167 Reno Cycling Team p/b Nature's

Women - Pro/Cat 1/2/3

 Place Points NameCity, StateTime USAC #BibTeam
1107.85 Marley SMITH (1 - Cat1)   Roseville, CA00:00:00.00 276961  113 Team Folsom Bike/Cervelo
2114.61 Rikke PREISLER (2 - Cat1)   Redwood City, CA00:00:00.00 293725  122 Metromint Cycling
3121.37 Danielle HAULMAN (3 - Cat1)   Davis, CA00:00:00.00 181367  104 Team Folsom Bike/Cervelo
4128.13 Jacqueline MCCLURE (4 - Cat1)   Malvern, PA00:00:00.00 323226  110 Farm Team Elite Women's Cyclin
5134.89 Kimberly FONG (5 - Cat1)   Berkeley, CA00:00:00.00 238713  103 CyclesFANATICRacing.com
6141.65 Marissa AXELL (6 - Cat1)   El Cerrito, CA00:00:00.00 269569  100 Fremont Bank Cycling team
7148.41 Shannon BHATIA (1 - Cat2)   San Jose, CA00:00:00.00 306273  120 Team TIBCO II
8155.17 Heidi LITTENBERG (2 - Cat2)   Reno, NV00:00:00.00 286191  108 Rio Strada Racing
9161.93 Sabrina DAVID (3 - Cat2)   Boulder, CO00:00:00.00 291263  101 Metromint Cycling
10168.69 Heather LIPANA (4 - Cat2)   Folsom, CA00:00:00.00 333090  107 RED Racing
11175.45 Rita SZETO (1 - Cat3)   Crockett, CA00:00:00.00 195322  115 Pacific Crush Racing
12182.21 Aliya TRAFICANTE (2 - Cat3)   Chico, CA00:00:00.00 310825  116 Chico Corsa Cycling Club
13188.97 Katie STONEBRAKER (3 - Cat3)   Sacramento, CA00:00:00.00 226927  118 Rio Strada Racing
14195.73 Emily MATHEU (7 - Cat1)   Oakland, CA00:00:00.00 277109  109 Leopard-Sapporo Team
15202.49 Nicole SLATON (4 - Cat3)   Davis, CA00:00:00.00 287914  112 Metromint Cycling
16209.25 Lindsay WETZEL POLIN (8 - Cat1)   Davis, CA00:00:00.00 172454  117 Sprintin' Kitten Coaching
17216.01 Kerry STIVALETTI (5 - Cat2)   Los Gatos, CA00:00:00.00 239419  114 CyclesFANATICRacing.com
18222.77 Karen HUTCHINS (5 - Cat3)   Folsom, CA00:00:00.00 308852  119 Red Peloton
19229.53 Shannon MITCHELL (6 - Cat2)   Santa Rosa, CA00:00:00.00 307520  111 Red Peloton
20236.29 Jennifer KRUGER (7 - Cat2)   Rohnert Park, CA00:00:00.00 339128  106 Red Peloton
21243.05 Laurie FURMAN (9 - Cat1)   Redwood City, CA00:00:00.00 107768  123 Metromint Cycling
22249.81 Gale DE ROSA (6 - Cat3)   Gold River, CA00:00:00.00 332412  102 Metromint Cycling
23256.57 Judith WEXLER (8 - Cat2)   Davis, CA00:00:00.00 228010  121 CyclesFANATICRacing.com
DNS Lana HEMENWAY (Cat1)   Huntington Beach00:00:00.00 207288  105 Team Fred Meyer

- Cat1/2/3/4/5 - Junior - 10-12

 Place Points NameCity, StateTime USAC #BibTeam
1470.56 Grover ROZEK (1 - Cat4)   Folsom00:00:00.00 331894  915 Team Bicycles Plus/Sierra Neva
2478.02 Decker KROGH (1 - Cat5)   Nevada City, CA00:00:00.00 335748  916 SHO-AIR/SERT
3485.48 Isabella BRUNNER (2 - Cat4)   Healdsburg, CA00:00:00.00 353954  900 team swift.
4492.94 Peter HILLEN   Orinda, CA00:00:00.00 333102  914 
5500.40 Hans NIEMANN (2 - Cat5)   Orinda, CA00:00:00.00 379284  908 
6507.86 Creighton GRUBER   Chico, CA00:00:00.00 406824  903 Chico Corsa
7515.32 Colton SWINTH (3 - Cat5)   Santa Rosa, CA00:00:00.00 403726  911 TeamSwift
8522.78 Colby TELL (4 - Cat5)   Sacramento, CA00:00:00.00 396014  912 Team City
9530.24 Henry CHADWICK (5 - Cat5)   Sacramento, CA00:00:00.00 396051  902 Team City Sacramento
10 Luke POWERS   00:00:00.00  910 NA
11 Alex LEVY   00:00:00.00  905 Team City
12552.62 Teoman TEZCAN (6 - Cat5)   Davis00:00:00.00 393554  913 Davis Bike Club
13560.08 Ben LEVY   San Leandro, CA00:00:00.00 21026  906 Team City
14567.54 Owen NAWRATH (7 - Cat5)   Sacramento00:00:00.00 404690  907 City Bike Sacramento
15575.00 Sullivan HARGROVE (3 - Cat4)   West Sacramento, CA00:00:00.00 389184  904 Davis Bike Club Race Team Juni
16 D.j. CAUTHEN   00:00:00.00  901 TEAM CITY
17589.92 Joseph O'DELL (8 - Cat5)   Folsom, CA00:00:00.00 366336  909 Folsom Bike/VW/Raley's

- Cat1/2/3/4/5 - Junior - 13-14

 Place Points NameCity, StateTime USAC #BibTeam
1395.09 Samuel HILL (1 - Cat4)   Woodland, CA00:00:00.00 318306  954 Davis Bike Club Race Team Juni
2416.05 Kyle FIORI (2 - Cat4)   Folsom, CA00:00:00.00 303705  950 Davis Bike Club Jr Race Team
3437.01 Zachary GOTTESMAN (3 - Cat4)   Greenbrae00:00:00.00 380907  951 Mellow Motors Cycling Club
4457.97 Charlie VELEZ (4 - Cat4)   El Dorado Hills, CA00:00:00.00 337774  958 Cycling Development
5478.93 Jack HARGROVE (1 - Cat5)   West Sacramento00:00:00.00 379870  952 Davis Bike Club Race Team Juni
6 Landon PERKINS   00:00:00.00  959 
7520.85 Kennedy HILL (5 - Cat4)   Woodland, CA00:00:00.00 352008  953 Davis Bike Club Race Team Juni
8541.81 Hawk KRING (2 - Cat5)   Sacramento, CA00:00:00.00 389149  955 Davis Bike Club Race Team
9562.77 Anil TULI (6 - Cat4)   Davis Ca00:00:00.00 365348  957 Davis Bike Club Race Team Juni
10583.73 David LEON (3 - Cat5)   Davis, CA00:00:00.00 388637  956 Davis Bike Club Race Team Juni

- Cat1/2/3/4/5 - Junior - 15-16

 Place Points NameCity, StateTime USAC #BibTeam
1283.62 Jonathan CHRISTENSEN (1 - Cat3)   Clements, CA00:00:00.00 250315  561 Team Bicycles Plus/Sierra Neva
2312.53 Connor ELLISON (2 - Cat3)   Folsom, CA00:00:00.00 329264  552 Team Bicycles Plus/Sierra Neva
3341.44 Jasper HODGSON (1 - Cat4)   Folsom, CA00:00:00.00 337878  554 Team Bicycles Plus/Sierra Neva
4370.35 Robert TERRA (3 - Cat3)   Lodi, CA00:00:00.00 269793  558 Team Bicycles Plus/Sierra Neva
5399.26 Matthew KESSELRING (2 - Cat4)   El Dorado Hills, CA00:00:00.00 393903  556 Cycling development
6428.17 Ryan JOY (1 - Cat5)   Granite Bay, CA00:00:00.00 335440  559 Team Bicycles Plus/Sierra Neva
7457.08 Will KANZ (3 - Cat4)   Davis, CA00:00:00.00 286429  555 Davis bike club juniors
8485.99 Aley ABDEL-GHAFFAR (2 - Cat5)   Davis, CA00:00:00.00 364871  550 Davis Bike Club Race Team
9514.90 Sam RUHE (3 - Cat5)   Davis00:00:00.00 393345  557 Davis Bike Club
10543.81 Matthew DAILEY (4 - Cat4)   Davis, CA00:00:00.00 330968  551 Davis Bike Club Race Team
DNF Michael HAHN (Cat4)   Folsom, CA00:00:00.00 338214  553 Team Bicycles Plus/Sierra Neva
DNF Samuel HILL (Cat4)   Woodland, CA00:00:00.00 318306  560 Davis Bike Club Race Team

- Cat1/2/3/4/5 - Junior - 17-18

 Place Points NameCity, StateTime USAC #BibTeam
1362.92 Chance TINER (1 - Cat4)   Santa Cruz, CA00:00:00.00 304640  579 
2422.60 Wyatt MORIN (2 - Cat4)   Roseville, CA00:00:00.00 266930  578 Victory Velo Racing
3 Frank SCIALES   00:00:00.00  576 
4541.96 Troy STRICKLAND (3 - Cat4)   San Ramon00:00:00.00 279824  577 Tieni Duro Junior Cycling
DNS Gabe MULTER (Cat3)   Santa Cruz, CA00:00:00.00 331142  580 Bear Development Team

Report missing or incorrect license numbers

Volkswagen
Sierra NevadaCUOREUSACDFSpyBonk BreakerShimanoOSMO
UCI USA Cycling is the official governing body for all disciplines of competitive cycling in the United States. The 501c3, membership-based organization aims both to achieve sustained success in international cycling competition and to grow competitive cycling in America while delivering an exceptional customer experience.
View Children's Online Privacy Protection Policy
US Olympic Committee